createdAt,value
2019-04-29T00:01:45.983Z,90.79
2019-04-29T00:04:18.047Z,91.18
2019-04-29T00:06:49.798Z,90.99
2019-04-29T00:09:21.776Z,91.01
2019-04-29T00:11:53.620Z,90.95
2019-04-29T00:14:25.633Z,91.10
2019-04-29T00:16:59.017Z,91.11
2019-04-29T00:19:32.298Z,91.06
2019-04-29T00:22:03.869Z,91.04
2019-04-29T00:24:36.172Z,90.91
2019-04-29T00:27:08.310Z,91.38
2019-04-29T00:29:39.838Z,91.33
2019-04-29T00:32:12.078Z,91.39
2019-04-29T00:34:43.690Z,91.50
2019-04-29T00:37:25.969Z,91.68
2019-04-29T00:40:12.723Z,91.66
2019-04-29T00:42:47.183Z,91.73
2019-04-29T00:45:19.391Z,91.38
2019-04-29T00:47:51.047Z,91.73
2019-04-29T00:50:23.144Z,91.61
2019-04-29T00:52:55.095Z,91.77
2019-04-29T00:55:34.054Z,91.83
2019-04-29T00:58:06.680Z,91.74
2019-04-29T01:00:41.555Z,91.71
2019-04-29T01:03:13.302Z,91.73
2019-04-29T01:05:45.347Z,91.58
2019-04-29T01:08:17.076Z,91.63
2019-04-29T01:10:48.913Z,91.82
2019-04-29T01:13:20.679Z,91.87
2019-04-29T01:15:52.407Z,92.07
2019-04-29T01:18:24.155Z,91.75
2019-04-29T01:20:57.092Z,91.75
2019-04-29T01:23:30.448Z,92.05
2019-04-29T01:26:04.118Z,92.17
2019-04-29T01:28:37.413Z,92.36
2019-04-29T01:31:13.890Z,92.18
2019-04-29T01:33:48.349Z,92.23
2019-04-29T01:36:22.555Z,92.69
2019-04-29T01:38:55.844Z,92.27
2019-04-29T01:41:29.110Z,92.33
2019-04-29T01:44:05.231Z,92.50
2019-04-29T01:46:36.863Z,92.30
2019-04-29T01:49:08.608Z,92.12
2019-04-29T01:51:40.334Z,92.04
2019-04-29T01:54:12.080Z,92.15
2019-04-29T01:56:43.914Z,91.50
2019-04-29T01:59:16.531Z,92.00
2019-04-29T02:01:48.265Z,91.94
2019-04-29T02:04:20.143Z,92.07
2019-04-29T02:06:51.833Z,92.16
2019-04-29T02:09:34.150Z,92.01
2019-04-29T02:12:05.854Z,91.70
2019-04-29T02:14:37.603Z,91.73
2019-04-29T02:17:09.330Z,91.96
2019-04-29T02:19:41.066Z,91.96
2019-04-29T02:22:14.434Z,91.82
2019-04-29T02:24:47.751Z,92.02
2019-04-29T02:27:19.395Z,91.94
2019-04-29T02:29:51.135Z,91.95
2019-04-29T02:32:22.702Z,91.92
2019-04-29T02:34:54.437Z,91.83
2019-04-29T02:37:30.754Z,91.87
2019-04-29T02:40:04.130Z,91.70
2019-04-29T02:42:46.110Z,92.04
2019-04-29T02:45:21.962Z,91.84
2019-04-29T02:47:53.807Z,92.13
2019-04-29T02:50:26.429Z,92.16
2019-04-29T02:52:58.162Z,92.15
2019-04-29T02:55:31.651Z,92.42
2019-04-29T02:58:04.923Z,92.56
2019-04-29T03:00:47.078Z,92.64
2019-04-29T03:03:23.253Z,92.62
2019-04-29T03:05:59.863Z,92.22
2019-04-29T03:08:31.512Z,92.40
2019-04-29T03:11:03.275Z,92.49
2019-04-29T03:13:35.098Z,92.28
2019-04-29T03:16:11.105Z,92.28
2019-04-29T03:18:50.499Z,92.38
2019-04-29T03:21:24.260Z,92.11
2019-04-29T03:23:55.903Z,92.28
2019-04-29T03:26:27.666Z,92.61
2019-04-29T03:28:59.413Z,92.63
2019-04-29T03:31:31.204Z,92.60
2019-04-29T03:34:04.427Z,92.76
2019-04-29T03:36:36.194Z,93.09
2019-04-29T03:39:07.951Z,92.97
2019-04-29T03:41:39.780Z,92.71
2019-04-29T03:44:11.415Z,92.96
2019-04-29T03:46:43.274Z,93.18
2019-04-29T03:49:15.019Z,92.98
2019-04-29T03:51:46.784Z,92.81
2019-04-29T03:54:18.561Z,93.19
2019-04-29T03:56:50.315Z,92.78
2019-04-29T03:59:22.075Z,92.86
2019-04-29T04:01:56.312Z,92.97
2019-04-29T04:04:47.837Z,93.14
2019-04-29T04:07:28.020Z,93.06
2019-04-29T04:09:59.757Z,92.93
2019-04-29T04:12:31.525Z,93.02
2019-04-29T04:15:03.824Z,92.98
2019-04-29T04:17:43.230Z,93.12
2019-04-29T04:20:15.428Z,92.96
2019-04-29T04:22:47.972Z,92.91
2019-04-29T04:25:19.584Z,92.60
2019-04-29T04:27:51.345Z,92.65
2019-04-29T04:30:23.759Z,92.65
2019-04-29T04:32:55.585Z,92.70
2019-04-29T04:35:28.745Z,92.86
2019-04-29T04:38:00.463Z,92.72
2019-04-29T04:40:36.778Z,92.71
2019-04-29T04:43:08.341Z,92.57
2019-04-29T04:45:40.085Z,92.33
2019-04-29T04:48:11.923Z,92.30
2019-04-29T04:50:43.553Z,92.35
2019-04-29T04:53:15.310Z,91.86
2019-04-29T04:55:49.105Z,91.98
2019-04-29T04:58:20.684Z,92.25
2019-04-29T05:00:53.414Z,91.98
2019-04-29T05:03:25.966Z,92.04
2019-04-29T05:05:58.014Z,91.59
2019-04-29T05:08:30.261Z,91.52
2019-04-29T05:11:01.989Z,91.03
2019-04-29T05:13:33.764Z,91.18
2019-04-29T05:16:05.656Z,91.06
2019-04-29T05:18:37.529Z,90.21
2019-04-29T05:21:09.293Z,90.51
2019-04-29T05:23:44.122Z,90.19
2019-04-29T05:26:15.871Z,89.67
2019-04-29T05:28:47.699Z,89.60
2019-04-29T05:31:19.349Z,89.06
2019-04-29T05:33:51.415Z,88.71
2019-04-29T05:36:38.088Z,87.90
2019-04-29T05:39:12.680Z,87.88
2019-04-29T05:41:44.587Z,87.95
2019-04-29T05:44:24.207Z,87.85
2019-04-29T05:46:57.693Z,87.62
2019-04-29T05:49:30.989Z,88.60
2019-04-29T05:52:17.491Z,88.03
2019-04-29T05:54:49.151Z,87.97
2019-04-29T05:57:25.212Z,88.32
2019-04-29T05:59:54.252Z,88.63
2019-04-29T06:02:33.406Z,88.01
2019-04-29T06:05:00.151Z,88.03
2019-04-29T06:07:31.892Z,88.25
2019-04-29T06:10:05.390Z,88.21
2019-04-29T06:12:37.037Z,88.12
2019-04-29T06:15:09.330Z,88.06
2019-04-29T06:17:44.698Z,88.06
2019-04-29T06:20:17.535Z,88.58
2019-04-29T06:22:48.006Z,88.57
2019-04-29T06:25:19.769Z,88.29
2019-04-29T06:27:52.160Z,88.15
2019-04-29T06:30:24.063Z,88.12
2019-04-29T06:32:55.776Z,87.92
2019-04-29T06:35:27.445Z,87.45
2019-04-29T06:37:59.184Z,87.42
2019-04-29T06:40:35.394Z,87.94
2019-04-29T06:43:10.658Z,87.58
2019-04-29T06:45:43.999Z,86.77
2019-04-29T06:48:15.739Z,86.73
2019-04-29T06:50:49.772Z,87.32
2019-04-29T06:53:21.724Z,87.31
2019-04-29T06:55:54.693Z,87.23
2019-04-29T06:58:26.436Z,86.65
2019-04-29T07:01:01.065Z,86.90
2019-04-29T07:03:31.538Z,86.08
2019-04-29T07:06:04.176Z,85.98
2019-04-29T07:08:35.915Z,85.85
2019-04-29T07:11:08.559Z,85.38
2019-04-29T07:13:40.361Z,84.98
2019-04-29T07:16:12.114Z,84.85
2019-04-29T07:18:48.327Z,84.83
2019-04-29T07:21:18.853Z,84.69
2019-04-29T07:23:50.487Z,85.15
2019-04-29T07:26:25.004Z,84.74
2019-04-29T07:28:56.750Z,85.22
2019-04-29T07:31:33.397Z,85.07
2019-04-29T07:34:02.120Z,84.59
2019-04-29T07:36:33.881Z,84.21
2019-04-29T07:39:08.364Z,84.12
2019-04-29T07:41:40.186Z,83.81
2019-04-29T07:44:13.746Z,83.73
2019-04-29T07:46:56.575Z,83.32
2019-04-29T07:49:22.833Z,83.60
2019-04-29T07:51:54.621Z,82.47
2019-04-29T07:54:26.329Z,81.79
2019-04-29T07:56:58.154Z,81.40
2019-04-29T07:59:33.885Z,81.01
2019-04-29T08:02:03.725Z,81.31
2019-04-29T08:04:35.559Z,80.54
2019-04-29T08:07:08.183Z,80.25
2019-04-29T08:09:44.236Z,80.92
2019-04-29T08:12:15.097Z,80.29
2019-04-29T08:14:48.681Z,81.22
2019-04-29T08:17:20.440Z,80.28
2019-04-29T08:19:52.177Z,80.06
2019-04-29T08:22:27.858Z,79.87
2019-04-29T08:24:57.585Z,78.81
2019-04-29T08:27:39.762Z,78.78
2019-04-29T08:30:06.576Z,78.86
2019-04-29T08:32:37.789Z,77.71
2019-04-29T08:35:09.851Z,76.86
2019-04-29T08:37:41.412Z,76.78
2019-04-29T08:40:16.482Z,76.09
2019-04-29T08:42:52.387Z,75.78
2019-04-29T08:45:28.689Z,76.62
2019-04-29T08:48:01.321Z,76.54
2019-04-29T08:50:33.330Z,74.65
2019-04-29T08:53:05.936Z,74.73
2019-04-29T08:55:37.772Z,76.12
2019-04-29T08:58:12.766Z,73.75
2019-04-29T09:00:44.953Z,73.79
2019-04-29T09:03:18.744Z,72.46
2019-04-29T09:06:03.938Z,72.13
2019-04-29T09:08:28.929Z,71.60
2019-04-29T09:10:58.767Z,70.61
2019-04-29T09:13:30.503Z,69.31
2019-04-29T09:16:02.237Z,66.60
2019-04-29T09:18:33.996Z,66.10
2019-04-29T09:21:05.733Z,65.76
2019-04-29T09:23:38.872Z,64.38
2019-04-29T09:26:18.115Z,63.04
2019-04-29T09:28:50.085Z,63.73
2019-04-29T09:31:22.171Z,63.50
2019-04-29T09:34:06.041Z,63.07
2019-04-29T09:36:28.852Z,62.09
2019-04-29T09:39:01.888Z,62.82
2019-04-29T09:41:36.868Z,62.58
2019-04-29T09:44:26.602Z,61.54
2019-04-29T09:46:58.830Z,61.08
2019-04-29T09:49:30.480Z,59.94
2019-04-29T09:52:02.221Z,61.65
2019-04-29T09:54:33.987Z,59.68
2019-04-29T09:57:06.173Z,58.44
2019-04-29T09:59:48.670Z,59.17
2019-04-29T10:02:38.521Z,58.65
2019-04-29T10:05:28.517Z,58.53
2019-04-29T10:08:00.827Z,56.56
2019-04-29T10:10:37.146Z,56.59
2019-04-29T10:13:07.877Z,56.94
2019-04-29T10:15:41.246Z,56.93
2019-04-29T10:18:12.658Z,54.29
2019-04-29T10:20:46.061Z,54.37
2019-04-29T10:23:17.707Z,55.33
2019-04-29T10:25:49.845Z,54.40
2019-04-29T10:28:21.760Z,54.14
2019-04-29T10:30:53.988Z,54.13
2019-04-29T10:33:26.567Z,54.46
2019-04-29T10:35:58.492Z,53.98
2019-04-29T10:38:30.049Z,54.83
2019-04-29T10:41:09.456Z,55.28
2019-04-29T10:43:49.380Z,54.36
2019-04-29T10:46:30.047Z,51.93
2019-04-29T10:49:13.133Z,52.82
2019-04-29T10:51:46.802Z,51.70
2019-04-29T10:54:18.750Z,52.45
2019-04-29T10:56:51.343Z,49.42
2019-04-29T10:59:35.330Z,48.55
2019-04-29T11:02:25.164Z,49.38
2019-04-29T11:04:58.897Z,48.95
2019-04-29T11:07:39.547Z,48.23
2019-04-29T11:10:31.101Z,49.25
2019-04-29T11:13:04.209Z,47.50
2019-04-29T11:15:37.097Z,47.38
2019-04-29T11:18:09.009Z,48.43
2019-04-29T11:20:40.863Z,48.61
2019-04-29T11:23:17.935Z,47.23
2019-04-29T11:25:55.319Z,47.37
2019-04-29T11:28:28.213Z,46.37
2019-04-29T11:30:59.888Z,47.51
2019-04-29T11:33:39.995Z,46.94
2019-04-29T11:36:12.126Z,46.65
2019-04-29T11:38:44.062Z,46.88
2019-04-29T11:41:19.847Z,45.61
2019-04-29T11:43:51.122Z,46.40
2019-04-29T11:46:23.993Z,45.88
2019-04-29T11:48:57.296Z,44.68
2019-04-29T11:52:05.334Z,46.67
2019-04-29T11:54:18.058Z,46.00
2019-04-29T11:56:49.377Z,45.58
2019-04-29T11:59:22.862Z,47.34
2019-04-29T12:01:59.752Z,46.40
2019-04-29T12:04:34.715Z,45.99
2019-04-29T12:07:06.466Z,45.53
2019-04-29T12:09:38.322Z,44.89
2019-04-29T12:12:12.753Z,45.96
2019-04-29T12:14:56.600Z,46.67
2019-04-29T12:17:29.986Z,46.90
2019-04-29T12:20:08.933Z,46.58
2019-04-29T12:22:48.140Z,48.42
2019-04-29T12:25:14.344Z,47.73
2019-04-29T12:27:46.092Z,48.15
2019-04-29T12:30:20.432Z,48.03
2019-04-29T12:32:56.733Z,47.41
2019-04-29T12:35:51.198Z,46.80
2019-04-29T12:38:13.217Z,45.40
2019-04-29T12:40:55.124Z,44.26
2019-04-29T12:43:43.833Z,43.15
2019-04-29T12:46:20.684Z,43.44
2019-04-29T12:48:52.496Z,42.85
2019-04-29T12:51:24.169Z,42.29
2019-04-29T12:53:55.908Z,41.22
2019-04-29T12:56:38.057Z,41.42
2019-04-29T12:59:09.875Z,39.70
2019-04-29T13:01:58.104Z,39.03
2019-04-29T13:04:37.364Z,39.71
2019-04-29T13:07:12.000Z,39.59
2019-04-29T13:09:57.242Z,38.62
2019-04-29T13:12:30.399Z,38.47
2019-04-29T13:15:08.084Z,38.66
2019-04-29T13:17:46.276Z,38.59
2019-04-29T13:20:18.781Z,39.01
2019-04-29T13:22:50.360Z,40.18
2019-04-29T13:25:21.904Z,39.46
2019-04-29T13:27:56.120Z,39.41
2019-04-29T13:30:27.060Z,39.30
2019-04-29T13:33:01.180Z,39.33
2019-04-29T13:35:32.001Z,39.61
2019-04-29T13:38:04.565Z,39.62
2019-04-29T13:40:37.785Z,40.55
2019-04-29T13:43:09.941Z,39.64
2019-04-29T13:45:41.459Z,39.50
2019-04-29T13:48:21.000Z,40.11
2019-04-29T13:50:54.224Z,38.53
2019-04-29T13:53:25.924Z,38.17
2019-04-29T13:56:11.066Z,38.57
2019-04-29T13:58:30.999Z,38.17
2019-04-29T14:01:20.527Z,37.90
2019-04-29T14:03:47.152Z,38.02
2019-04-29T14:06:20.775Z,38.87
2019-04-29T14:08:54.147Z,37.89
2019-04-29T14:11:27.345Z,38.72
2019-04-29T14:13:59.350Z,39.61
2019-04-29T14:16:32.078Z,38.31
2019-04-29T14:19:03.758Z,37.85
2019-04-29T14:21:37.743Z,37.56
2019-04-29T14:24:10.788Z,37.27
2019-04-29T14:26:47.850Z,36.73
2019-04-29T14:29:27.991Z,36.95
2019-04-29T14:32:01.383Z,36.93
2019-04-29T14:34:40.766Z,38.04
2019-04-29T14:37:24.540Z,37.62
2019-04-29T14:39:55.512Z,38.16
2019-04-29T14:42:57.083Z,38.66
2019-04-29T14:45:20.531Z,38.62
2019-04-29T14:48:13.361Z,38.14
2019-04-29T14:50:54.024Z,37.88
2019-04-29T14:53:24.326Z,38.11
2019-04-29T14:55:56.844Z,38.47
2019-04-29T14:58:28.626Z,36.96
2019-04-29T15:01:02.702Z,36.85
2019-04-29T15:03:55.123Z,37.18
2019-04-29T15:06:28.984Z,37.97
2019-04-29T15:09:01.336Z,37.08
2019-04-29T15:11:45.473Z,37.33
2019-04-29T15:14:27.033Z,37.74
2019-04-29T15:17:07.949Z,37.82
2019-04-29T15:19:58.600Z,37.99
2019-04-29T15:22:42.985Z,37.62
2019-04-29T15:25:24.120Z,38.79
2019-04-29T15:27:59.997Z,38.90
2019-04-29T15:30:36.591Z,37.67
2019-04-29T15:33:05.481Z,38.53
2019-04-29T15:35:37.267Z,37.40
2019-04-29T15:38:10.130Z,37.30
2019-04-29T15:40:43.155Z,38.30
2019-04-29T15:43:17.928Z,37.55
2019-04-29T15:45:50.040Z,37.91
2019-04-29T15:48:21.899Z,38.50
2019-04-29T15:50:53.428Z,38.70
2019-04-29T15:53:25.883Z,38.78
2019-04-29T15:56:06.646Z,39.46
2019-04-29T15:58:31.541Z,38.95
2019-04-29T16:01:12.992Z,39.20
2019-04-29T16:03:38.006Z,39.88
2019-04-29T16:06:21.002Z,39.77
2019-04-29T16:08:47.126Z,38.83
2019-04-29T16:11:36.848Z,39.75
2019-04-29T16:14:17.000Z,39.44
2019-04-29T16:16:48.850Z,39.58
2019-04-29T16:19:20.999Z,40.29
2019-04-29T16:21:52.710Z,39.95
2019-04-29T16:24:26.711Z,40.55
2019-04-29T16:27:01.233Z,40.16
2019-04-29T16:29:32.847Z,39.86
2019-04-29T16:32:06.379Z,39.76
2019-04-29T16:34:44.773Z,39.22
2019-04-29T16:37:11.213Z,38.67
2019-04-29T16:39:43.067Z,38.68
2019-04-29T16:42:16.369Z,38.39
2019-04-29T16:44:49.219Z,38.28
2019-04-29T16:47:22.048Z,38.16
2019-04-29T16:49:57.740Z,37.35
2019-04-29T16:52:27.305Z,37.99
2019-04-29T16:55:03.620Z,37.53
2019-04-29T16:57:33.995Z,38.43
2019-04-29T17:00:14.807Z,37.98
2019-04-29T17:02:46.003Z,38.64
2019-04-29T17:05:17.763Z,38.91
2019-04-29T17:07:49.498Z,38.78
2019-04-29T17:10:38.917Z,39.12
2019-04-29T17:13:18.649Z,39.34
2019-04-29T17:15:44.476Z,39.89
2019-04-29T17:18:17.789Z,39.82
2019-04-29T17:20:50.784Z,40.10
2019-04-29T17:23:24.506Z,39.68
2019-04-29T17:25:55.797Z,40.18
2019-04-29T17:28:29.346Z,40.22
2019-04-29T17:31:16.499Z,40.81
2019-04-29T17:33:52.792Z,41.20
2019-04-29T17:36:25.850Z,41.47
2019-04-29T17:38:58.292Z,41.28
2019-04-29T17:41:30.039Z,41.18
2019-04-29T17:44:14.480Z,41.75
2019-04-29T17:46:47.937Z,41.45
2019-04-29T17:49:30.630Z,41.65
2019-04-29T17:52:04.511Z,41.89
2019-04-29T17:54:38.089Z,42.06
2019-04-29T17:57:26.521Z,42.15
2019-04-29T18:00:00.585Z,42.45
2019-04-29T18:02:38.502Z,42.70
2019-04-29T18:05:20.949Z,43.05
2019-04-29T18:07:56.153Z,43.49
2019-04-29T18:10:40.326Z,44.34
2019-04-29T18:13:16.089Z,44.79
2019-04-29T18:15:58.575Z,45.01
2019-04-29T18:18:20.872Z,45.38
2019-04-29T18:21:06.416Z,45.72
2019-04-29T18:23:59.231Z,46.38
2019-04-29T18:26:33.674Z,46.76
2019-04-29T18:29:07.840Z,46.34
2019-04-29T18:31:39.050Z,47.07
2019-04-29T18:34:10.827Z,47.24
2019-04-29T18:36:45.895Z,47.23
2019-04-29T18:39:26.861Z,47.68
2019-04-29T18:41:58.804Z,48.14
2019-04-29T18:44:29.730Z,48.49
2019-04-29T18:47:19.497Z,48.87
2019-04-29T18:49:38.158Z,49.09
2019-04-29T18:52:23.845Z,49.21
2019-04-29T18:54:50.769Z,49.91
2019-04-29T18:57:30.589Z,49.98
2019-04-29T18:59:58.958Z,50.51
2019-04-29T19:02:32.416Z,50.75
2019-04-29T19:05:10.386Z,50.67
2019-04-29T19:07:53.125Z,50.38
2019-04-29T19:10:31.760Z,50.39
2019-04-29T19:13:00.374Z,50.17
2019-04-29T19:15:39.922Z,50.24
2019-04-29T19:18:17.458Z,50.12
2019-04-29T19:20:52.746Z,50.71
2019-04-29T19:23:29.522Z,50.52
2019-04-29T19:26:00.469Z,50.62
2019-04-29T19:28:32.511Z,50.27
2019-04-29T19:31:09.517Z,50.43
2019-04-29T19:33:40.582Z,50.34
2019-04-29T19:36:17.522Z,49.09
2019-04-29T19:38:47.436Z,49.22
2019-04-29T19:41:19.220Z,48.69
2019-04-29T19:43:55.451Z,47.94
2019-04-29T19:46:36.970Z,47.74
2019-04-29T19:49:08.514Z,48.21
2019-04-29T19:51:43.690Z,48.31
2019-04-29T19:54:28.615Z,48.39
2019-04-29T19:57:03.409Z,47.91
2019-04-29T19:59:38.655Z,47.82
2019-04-29T20:02:19.144Z,47.84
2019-04-29T20:05:17.322Z,48.35
2019-04-29T20:07:51.482Z,47.82
2019-04-29T20:10:26.578Z,47.29
2019-04-29T20:12:59.927Z,47.17
2019-04-29T20:15:37.292Z,46.77
2019-04-29T20:18:12.011Z,46.69
2019-04-29T20:21:09.024Z,47.47
2019-04-29T20:23:39.131Z,46.33
2019-04-29T20:26:15.583Z,45.43
2019-04-29T20:28:50.966Z,45.60
2019-04-29T20:31:25.801Z,45.59
2019-04-29T20:33:58.638Z,45.00
2019-04-29T20:36:40.868Z,44.87
2019-04-29T20:39:15.617Z,45.35
2019-04-29T20:41:48.709Z,45.46
2019-04-29T20:44:18.586Z,45.78
2019-04-29T20:47:14.183Z,46.00
2019-04-29T20:49:35.938Z,45.47
2019-04-29T20:52:21.957Z,45.57
2019-04-29T20:55:00.839Z,46.21
2019-04-29T20:57:31.239Z,46.27
2019-04-29T21:00:06.187Z,46.08
2019-04-29T21:02:39.455Z,45.84
2019-04-29T21:05:23.144Z,46.12
2019-04-29T21:07:49.145Z,46.40
2019-04-29T21:10:22.142Z,46.50
2019-04-29T21:13:16.221Z,46.75
2019-04-29T21:15:55.516Z,46.76
2019-04-29T21:18:33.226Z,47.24
2019-04-29T21:21:07.820Z,47.84
2019-04-29T21:23:41.097Z,47.90
2019-04-29T21:26:12.754Z,48.09
2019-04-29T21:28:47.046Z,47.66
2019-04-29T21:31:20.025Z,48.44
2019-04-29T21:33:55.330Z,48.60
2019-04-29T21:36:30.760Z,48.67
2019-04-29T21:39:06.073Z,47.47
2019-04-29T21:41:43.350Z,49.08
2019-04-29T21:44:34.954Z,49.00
2019-04-29T21:47:08.579Z,48.43
2019-04-29T21:49:45.348Z,47.72
2019-04-29T21:52:15.351Z,47.57
2019-04-29T21:54:49.284Z,47.54
2019-04-29T21:57:23.601Z,47.45
2019-04-29T21:59:55.636Z,47.77
2019-04-29T22:02:28.655Z,47.28
2019-04-29T22:05:00.194Z,47.39
2019-04-29T22:07:32.013Z,47.30
2019-04-29T22:10:05.265Z,47.61
2019-04-29T22:12:41.651Z,47.44
2019-04-29T22:15:29.930Z,47.00
2019-04-29T22:17:56.591Z,47.35
2019-04-29T22:20:26.768Z,47.43
2019-04-29T22:22:58.524Z,47.70
2019-04-29T22:25:30.261Z,48.34
2019-04-29T22:28:05.072Z,48.06
2019-04-29T22:30:38.089Z,48.12
2019-04-29T22:33:09.914Z,48.61
2019-04-29T22:35:41.552Z,48.36
2019-04-29T22:38:16.314Z,48.32
2019-04-29T22:40:51.326Z,48.84
2019-04-29T22:43:25.348Z,48.61
2019-04-29T22:45:57.235Z,48.85
2019-04-29T22:48:28.996Z,48.91
2019-04-29T22:51:02.397Z,48.86
2019-04-29T22:53:35.876Z,49.81
2019-04-29T22:56:08.883Z,49.66
2019-04-29T22:58:43.778Z,49.68
2019-04-29T23:01:15.646Z,49.82
2019-04-29T23:03:49.369Z,50.34
2019-04-29T23:06:21.099Z,50.25
2019-04-29T23:08:55.974Z,50.21
2019-04-29T23:11:30.512Z,50.87
2019-04-29T23:14:06.619Z,50.87
2019-04-29T23:16:37.376Z,51.29
2019-04-29T23:19:14.084Z,51.47
2019-04-29T23:21:45.383Z,51.80
2019-04-29T23:24:28.958Z,51.98
2019-04-29T23:27:00.698Z,52.69
2019-04-29T23:29:32.469Z,52.96
2019-04-29T23:32:08.183Z,53.04
2019-04-29T23:34:40.291Z,52.87
2019-04-29T23:37:12.324Z,53.15
2019-04-29T23:39:45.680Z,52.80
2019-04-29T23:42:17.709Z,52.83
2019-04-29T23:44:49.474Z,53.07
2019-04-29T23:47:21.204Z,53.25
2019-04-29T23:49:52.986Z,53.42
2019-04-29T23:52:24.731Z,54.09
2019-04-29T23:54:56.497Z,54.16
2019-04-29T23:57:32.581Z,54.71
